Time;durP1;ratioP1;P1;durP2;ratioP2;P2;SDS_P1;SDS_P2;PMS_P1;PMS_P2;Temp;Humidity;BMP_temperature;BMP_pressure;BME280_temperature;BME280_humidity;BME280_pressure;Samples;Min_cycle;Max_cycle;Signal;HPM_P1;HPM_P2
2022/04/02 00:00:56;;;;;;;5.80;3.03;;;;;;;;;;5058413;28;20037;-67
2022/04/02 00:03:22;;;;;;;15.30;3.28;;;;;;;;;;5074338;28;20052;-67
2022/04/02 00:05:48;;;;;;;9.15;2.88;;;;;;;;;;5082948;28;20032;-66
2022/04/02 00:08:14;;;;;;;8.77;2.83;;;;;;;;;;5075271;28;20036;-66
2022/04/02 00:10:40;;;;;;;7.43;3.13;;;;;;;;;;5079939;28;20044;-66
2022/04/02 00:13:07;;;;;;;9.88;2.63;;;;;;;;;;5079624;28;20491;-66
2022/04/02 00:15:33;;;;;;;8.55;2.83;;;;;;;;;;5075340;28;20129;-66
2022/04/02 00:17:59;;;;;;;11.25;2.80;;;;;;;;;;5073671;28;20047;-66
2022/04/02 00:20:25;;;;;;;5.95;3.10;;;;;;;;;;5063526;28;20094;-66
2022/04/02 00:25:36;;;;;;;10.93;2.67;;;;;;;;;;5090184;28;20092;-67
2022/04/02 00:28:02;;;;;;;12.68;3.25;;;;;;;;;;5074817;28;20388;-67
2022/04/02 00:30:28;;;;;;;8.50;2.97;;;;;;;;;;5089606;28;20126;-67
2022/04/02 00:32:54;;;;;;;12.13;2.75;;;;;;;;;;5087673;28;20477;-67
2022/04/02 00:35:20;;;;;;;10.25;3.47;;;;;;;;;;5074324;28;20040;-67
2022/04/02 00:37:46;;;;;;;11.68;3.90;;;;;;;;;;5070782;28;20090;-66
2022/04/02 00:40:12;;;;;;;11.20;3.50;;;;;;;;;;5074226;28;20048;-67
2022/04/02 00:42:38;;;;;;;4.85;2.63;;;;;;;;;;5079555;28;20101;-66
2022/04/02 00:45:05;;;;;;;10.48;4.35;;;4.00;99.90;;;;;;5091448;28;20039;-66
2022/04/02 00:47:31;;;;;;;7.68;3.55;;;;;;;;;;5092328;28;20036;-66
2022/04/02 00:49:57;;;;;;;17.73;3.30;;;;;;;;;;5088449;28;20094;-66
2022/04/02 00:52:25;;;;;;;11.43;2.97;;;3.20;99.90;;;;;;5091464;28;20083;-66
2022/04/02 00:54:52;;;;;;;10.07;3.13;;;;;;;;;;5080162;28;20059;-66
2022/04/02 00:57:18;;;;;;;7.50;3.13;;;;;;;;;;5070322;28;20067;-67
2022/04/02 00:59:45;;;;;;;10.15;3.22;;;3.20;99.90;;;;;;5090139;28;20572;-66
2022/04/02 01:02:12;;;;;;;7.20;3.55;;;;;;;;;;5081849;28;20055;-67
2022/04/02 01:04:38;;;;;;;8.57;2.80;;;;;;;;;;5074934;28;20485;-66
2022/04/02 01:07:04;;;;;;;8.45;2.80;;;2.60;99.90;;;;;;5053597;28;20051;-67
2022/04/02 01:09:30;;;;;;;6.20;2.70;;;;;;;;;;5070534;28;20032;-67
2022/04/02 01:11:56;;;;;;;7.88;2.90;;;;;;;;;;5089774;28;20129;-67
2022/04/02 01:14:23;;;;;;;9.38;2.97;;;;;;;;;;5089627;28;20123;-66
2022/04/02 01:16:49;;;;;;;8.80;3.47;;;2.70;99.90;;;;;;5071111;28;20093;-67
2022/04/02 01:19:15;;;;;;;12.35;2.95;;;;;;;;;;5091905;28;20039;-65
2022/04/02 01:21:47;;;;;;;7.88;3.00;;;;;;;;;;5089753;28;20105;-66
2022/04/02 01:24:13;;;;;;;11.10;3.05;;;;;;;;;;5071842;28;20040;-66
2022/04/02 01:26:40;;;;;;;9.65;2.85;;;;;;;;;;5088276;28;20044;-66
2022/04/02 01:29:06;;;;;;;11.27;2.95;;;;;;;;;;5088782;28;20722;-66
2022/04/02 01:31:33;;;;;;;11.52;2.72;;;;;;;;;;5087606;28;20476;-66
2022/04/02 01:33:59;;;;;;;9.18;2.53;;;;;;;;;;5089541;28;20041;-66
2022/04/02 01:36:25;;;;;;;8.52;2.67;;;;;;;;;;5088881;28;20377;-66
2022/04/02 01:38:51;;;;;;;3.22;2.05;;;;;;;;;;5089170;28;20043;-67
2022/04/02 01:41:18;;;;;;;12.00;2.70;;;2.60;99.90;;;;;;5091998;28;20044;-67
2022/04/02 01:43:44;;;;;;;11.38;2.75;;;;;;;;;;5091401;28;20114;-66
2022/04/02 01:46:10;;;;;;;9.63;2.90;;;1.50;99.90;;;;;;5084479;28;20393;-67
2022/04/02 01:48:36;;;;;;;10.35;3.00;;;;;;;;;;5074476;28;20089;-70
2022/04/02 01:51:03;;;;;;;10.75;2.80;;;2.40;99.90;;;;;;5090689;28;20091;-66
2022/04/02 01:53:29;;;;;;;5.60;2.95;;;;;;;;;;5090000;28;20040;-66
2022/04/02 01:55:55;;;;;;;4.95;2.83;;;;;;;;;;5091462;28;20424;-66
2022/04/02 01:58:21;;;;;;;7.40;2.70;;;;;;;;;;5089112;28;20077;-66
2022/04/02 02:00:47;;;;;;;5.68;2.83;;;;;;;;;;5072685;28;20519;-66
2022/04/02 02:03:13;;;;;;;8.48;2.90;;;;;;;;;;5081944;28;20452;-67
2022/04/02 02:05:40;;;;;;;6.43;2.67;;;;;;;;;;5073653;28;20040;-67
2022/04/02 02:08:06;;;;;;;7.35;2.75;;;;;;;;;;5074281;28;20111;-67
2022/04/02 02:10:32;;;;;;;13.57;2.78;;;2.10;99.90;;;;;;5053448;28;20045;-67
2022/04/02 02:12:59;;;;;;;9.80;2.70;;;;;;;;;;5051989;28;20041;-67
2022/04/02 02:15:26;;;;;;;4.55;2.50;;;;;;;;;;5051864;28;20037;-67
2022/04/02 02:17:53;;;;;;;9.32;3.08;;;;;;;;;;5059409;28;20542;-67
2022/04/02 02:20:19;;;;;;;9.50;2.55;;;2.20;99.90;;;;;;5070168;28;20044;-67
2022/04/02 02:22:46;;;;;;;11.32;2.75;;;2.20;99.90;;;;;;5070793;28;20374;-67
2022/04/02 02:25:15;;;;;;;7.43;2.45;;;2.10;99.90;;;;;;5069713;28;20047;-67
2022/04/02 02:27:42;;;;;;;9.13;2.67;;;2.20;99.90;;;;;;5069958;28;20072;-67
2022/04/02 02:30:10;;;;;;;8.95;2.85;;;2.20;99.90;;;;;;5070974;28;20072;-67
2022/04/02 02:32:37;;;;;;;7.40;2.65;;;;;;;;;;5071751;28;20071;-70
2022/04/02 02:37:49;;;;;;;11.93;2.90;;;;;;;;;;5074109;28;20094;-70
2022/04/02 02:40:15;;;;;;;8.65;2.85;;;2.00;99.90;;;;;;5071585;28;20048;-70
2022/04/02 02:42:41;;;;;;;5.30;2.60;;;;;;;;;;5072743;28;20044;-70
2022/04/02 02:45:08;;;;;;;7.30;2.90;;;;;;;;;;5055098;28;20447;-70
2022/04/02 02:47:34;;;;;;;9.32;2.65;;;;;;;;;;5073899;28;20074;-70
2022/04/02 02:50:03;;;;;;;4.63;2.47;;;;;;;;;;5074592;28;20076;-70
2022/04/02 02:52:29;;;;;;;13.02;2.88;;;;;;;;;;5075292;28;20049;-70
2022/04/02 02:54:55;;;;;;;5.18;3.10;;;;;;;;;;5075562;28;20116;-70
2022/04/02 02:57:21;;;;;;;8.00;2.55;;;;;;;;;;5091082;28;20047;-70
2022/04/02 02:59:47;;;;;;;8.68;3.17;;;;;;;;;;5075880;28;20071;-70
2022/04/02 03:02:13;;;;;;;9.10;2.90;;;;;;;;;;5075024;28;20048;-70
2022/04/02 03:04:41;;;;;;;10.07;2.80;;;;;;;;;;5059717;28;20111;-69
2022/04/02 03:07:07;;;;;;;10.02;3.92;;;;;;;;;;5090240;28;20056;-70
2022/04/02 03:09:33;;;;;;;9.68;3.08;;;;;;;;;;5092441;28;20044;-70
2022/04/02 03:12:00;;;;;;;8.07;2.60;;;;;;;;;;5089690;28;20044;-70
2022/04/02 03:14:26;;;;;;;6.32;2.80;;;;;;;;;;5076434;28;20123;-70
2022/04/02 03:16:52;;;;;;;6.68;2.75;;;;;;;;;;5091611;28;20044;-69
2022/04/02 03:19:18;;;;;;;11.15;3.03;;;;;;;;;;5091881;28;20046;-69
2022/04/02 03:21:44;;;;;;;11.45;2.75;;;;;;;;;;5093182;28;20093;-70
2022/04/02 03:24:11;;;;;;;8.45;2.60;;;;;;;;;;5080765;28;20041;-69
2022/04/02 03:26:37;;;;;;;4.40;2.65;;;;;;;;;;5075978;28;20037;-70
2022/04/02 03:29:03;;;;;;;8.00;2.63;;;;;;;;;;5086174;28;20032;-70
2022/04/02 03:31:29;;;;;;;4.53;2.42;;;;;;;;;;5091353;28;20032;-69
2022/04/02 03:33:55;;;;;;;10.20;3.08;;;;;;;;;;5089861;28;20055;-70
2022/04/02 03:36:21;;;;;;;12.13;2.97;;;;;;;;;;5091027;28;20105;-70
2022/04/02 03:38:47;;;;;;;10.52;2.88;;;;;;;;;;5091303;28;20048;-70
2022/04/02 03:41:13;;;;;;;13.40;3.08;;;;;;;;;;5092962;28;20143;-70
2022/04/02 03:43:39;;;;;;;13.10;3.20;;;;;;;;;;5087574;28;20043;-67
2022/04/02 03:48:50;;;;;;;8.32;3.78;;;;;;;;;;5077325;28;20396;-69
2022/04/02 03:51:17;;;;;;;8.85;2.75;;;;;;;;;;5093771;28;20048;-66
2022/04/02 03:53:44;;;;;;;10.10;2.72;;;;;;;;;;5089634;28;20048;-67
2022/04/02 03:56:10;;;;;;;15.00;2.50;;;;;;;;;;5092310;28;20040;-66
2022/04/02 03:58:37;;;;;;;15.02;2.65;;;;;;;;;;5091141;28;20051;-67
2022/04/02 04:01:03;;;;;;;11.45;3.20;;;;;;;;;;5091959;28;20040;-67
2022/04/02 04:03:29;;;;;;;12.30;3.03;;;;;;;;;;5085576;28;20035;-67
2022/04/02 04:05:55;;;;;;;7.55;2.67;;;;;;;;;;5092151;28;20129;-66
2022/04/02 04:08:21;;;;;;;9.95;3.15;;;;;;;;;;5091001;28;20136;-66
2022/04/02 04:10:49;;;;;;;12.05;3.35;;;;;;;;;;5091850;28;20036;-66
2022/04/02 04:13:15;;;;;;;11.05;2.85;;;;;;;;;;5087570;28;20089;-66
2022/04/02 04:15:41;;;;;;;7.68;2.45;;;;;;;;;;5091948;28;20036;-66
2022/04/02 04:18:07;;;;;;;13.23;3.08;;;;;;;;;;5073709;28;20050;-67
2022/04/02 04:20:34;;;;;;;10.63;2.70;;;;;;;;;;5091791;28;20029;-67
2022/04/02 04:23:01;;;;;;;22.50;3.17;;;;;;;;;;5079166;28;20051;-67
2022/04/02 04:25:27;;;;;;;9.35;2.70;;;;;;;;;;5074887;28;20040;-67
2022/04/02 04:27:53;;;;;;;6.40;3.05;;;;;;;;;;5074576;28;20055;-67
2022/04/02 04:30:19;;;;;;;18.95;2.90;;;;;;;;;;5079920;28;20519;-66
2022/04/02 04:32:46;;;;;;;17.75;3.17;;;;;;;;;;5073182;28;20040;-66
2022/04/02 04:35:12;;;;;;;9.48;2.90;;;;;;;;;;5056618;28;20040;-66
2022/04/02 04:37:38;;;;;;;12.90;3.00;;;;;;;;;;5074393;28;20055;-66
2022/04/02 04:40:05;;;;;;;8.57;2.83;;;;;;;;;;5084950;28;20048;-64
2022/04/02 04:42:31;;;;;;;10.57;2.97;;;;;;;;;;5091369;28;20044;-65
2022/04/02 04:44:57;;;;;;;12.68;3.30;;;;;;;;;;5091173;28;20044;-66
2022/04/02 04:47:23;;;;;;;9.13;3.20;;;;;;;;;;5080341;28;20055;-66
2022/04/02 04:49:49;;;;;;;9.93;3.13;;;;;;;;;;5072267;28;20049;-66
2022/04/02 04:52:15;;;;;;;11.45;3.33;;;;;;;;;;5072397;28;20497;-66
2022/04/02 04:54:41;;;;;;;8.90;2.90;;;;;;;;;;5073856;28;20131;-66
2022/04/02 04:57:08;;;;;;;17.27;3.00;;;;;;;;;;5072882;28;20040;-66
2022/04/02 04:59:34;;;;;;;5.55;2.72;;;;;;;;;;5074289;28;20040;-66
2022/04/02 05:02:00;;;;;;;9.07;3.22;;;1.50;99.90;;;;;;5072968;28;20036;-65
2022/04/02 05:04:26;;;;;;;7.05;3.00;;;;;;;;;;5073935;28;20507;-65
2022/04/02 05:06:53;;;;;;;13.30;3.47;;;;;;;;;;5073901;28;20032;-66
2022/04/02 05:09:19;;;;;;;8.38;3.63;;;;;;;;;;5073843;28;20131;-66
2022/04/02 05:11:45;;;;;;;9.27;3.15;;;;;;;;;;5072921;28;20045;-66
2022/04/02 05:14:13;;;;;;;14.68;3.40;;;;;;;;;;5080954;28;20043;-66
2022/04/02 05:16:39;;;;;;;10.65;3.15;;;;;;;;;;5075926;28;20052;-65
2022/04/02 05:19:06;;;;;;;10.45;3.22;;;1.70;99.90;;;;;;5072669;28;20072;-66
2022/04/02 05:21:33;;;;;;;10.35;3.90;;;;;;;;;;5072118;28;20438;-66
2022/04/02 05:23:59;;;;;;;7.03;2.90;;;;;;;;;;5072647;28;20396;-66
2022/04/02 05:26:25;;;;;;;7.68;3.63;;;;;;;;;;5071272;28;20036;-66
2022/04/02 05:28:51;;;;;;;8.57;3.13;;;;;;;;;;5071377;28;20045;-70
2022/04/02 05:31:17;;;;;;;14.35;3.17;;;;;;;;;;5055763;28;20063;-70
2022/04/02 05:33:43;;;;;;;5.82;3.03;;;;;;;;;;5055000;28;20477;-70
2022/04/02 05:36:09;;;;;;;5.40;3.05;;;;;;;;;;5069823;28;20508;-70
2022/04/02 05:38:35;;;;;;;7.57;3.10;;;;;;;;;;5072316;28;20564;-70
2022/04/02 05:41:01;;;;;;;12.95;3.50;;;;;;;;;;5072761;28;20512;-71
2022/04/02 05:43:28;;;;;;;10.02;3.47;;;;;;;;;;5071965;28;20048;-71
2022/04/02 05:45:54;;;;;;;13.13;3.90;;;;;;;;;;5066185;28;20127;-70
2022/04/02 05:48:21;;;;;;;7.63;3.65;;;;;;;;;;5053473;28;20043;-70
2022/04/02 05:50:47;;;;;;;6.60;3.35;;;;;;;;;;5062937;28;20461;-65
2022/04/02 05:53:13;;;;;;;7.82;3.58;;;1.50;99.90;;;;;;5067132;28;20043;-66
2022/04/02 05:55:39;;;;;;;10.75;3.97;;;2.00;99.90;;;;;;5067593;28;20120;-66
2022/04/02 05:58:05;;;;;;;13.80;3.92;;;;;;;;;;5059490;28;20032;-65
2022/04/02 06:00:31;;;;;;;11.10;4.65;;;;;;;;;;5071660;28;20044;-66
2022/04/02 06:02:57;;;;;;;21.73;4.30;;;;;;;;;;5055585;28;20392;-66
2022/04/02 06:05:23;;;;;;;18.63;4.13;;;;;;;;;;5069767;28;20039;-66
2022/04/02 06:07:49;;;;;;;17.33;4.10;;;;;;;;;;5052252;28;20493;-66
2022/04/02 06:10:15;;;;;;;10.15;4.07;;;;;;;;;;5052125;28;20521;-66
2022/04/02 06:12:41;;;;;;;12.48;4.30;;;;;;;;;;5067258;28;20040;-67
2022/04/02 06:15:09;;;;;;;12.52;4.20;;;;;;;;;;5071263;28;20093;-67
2022/04/02 06:17:36;;;;;;;14.85;5.07;;;1.80;99.90;;;;;;5063527;28;20385;-71
2022/04/02 06:20:02;;;;;;;10.38;4.80;;;;;;;;;;5083653;28;20076;-70
2022/04/02 06:22:28;;;;;;;13.27;4.25;;;;;;;;;;5053925;28;20045;-70
2022/04/02 06:24:55;;;;;;;9.40;4.20;;;;;;;;;;5055654;28;20055;-70
2022/04/02 06:27:21;;;;;;;12.35;4.60;;;;;;;;;;5066895;28;20040;-70
2022/04/02 06:29:48;;;;;;;14.63;4.50;;;;;;;;;;5058877;28;20045;-70
2022/04/02 06:32:14;;;;;;;11.43;4.68;;;;;;;;;;5063817;28;20072;-70
2022/04/02 06:34:40;;;;;;;20.30;4.80;;;;;;;;;;5073948;28;20033;-70
2022/04/02 06:37:07;;;;;;;14.73;4.43;;;;;;;;;;5073829;28;20051;-70
2022/04/02 06:39:33;;;;;;;16.38;5.00;;;;;;;;;;5068840;28;20032;-70
2022/04/02 06:41:59;;;;;;;10.27;4.43;;;;;;;;;;5069183;28;20040;-69
2022/04/02 06:44:25;;;;;;;11.20;4.55;;;;;;;;;;5058809;28;20039;-70
2022/04/02 06:46:51;;;;;;;13.80;4.40;;;;;;;;;;5057338;28;20041;-71
2022/04/02 06:49:17;;;;;;;9.50;4.05;;;;;;;;;;5068464;28;20052;-70
2022/04/02 06:51:43;;;;;;;11.48;4.00;;;;;;;;;;5056729;28;20464;-71
2022/04/02 06:54:09;;;;;;;15.32;4.60;;;;;;;;;;5056505;28;20111;-71
2022/04/02 06:56:35;;;;;;;8.85;4.00;;;;;;;;;;5063017;28;20040;-70
2022/04/02 06:59:02;;;;;;;19.35;4.80;;;;;;;;;;5057162;28;20041;-70
2022/04/02 07:01:28;;;;;;;8.63;4.20;;;;;;;;;;5056399;28;20506;-71
2022/04/02 07:03:54;;;;;;;12.20;4.03;;;;;;;;;;5068974;28;20044;-71
2022/04/02 07:06:20;;;;;;;18.20;4.95;;;;;;;;;;5061503;28;20071;-70
2022/04/02 07:08:46;;;;;;;13.52;4.03;;;;;;;;;;5058904;28;20029;-70
2022/04/02 07:11:12;;;;;;;18.27;5.68;;;;;;;;;;5056508;28;20053;-69
2022/04/02 07:13:38;;;;;;;17.50;4.22;;;;;;;;;;5070287;28;20103;-70
2022/04/02 07:16:04;;;;;;;12.52;3.90;;;2.60;99.90;;;;;;5074569;28;20491;-72
2022/04/02 07:18:32;;;;;;;9.32;4.07;;;2.70;99.90;;;;;;5075454;28;20106;-71
2022/04/02 07:20:59;;;;;;;18.85;4.30;;;;;;;;;;5059290;28;20045;-71
2022/04/02 07:23:25;;;;;;;11.77;3.90;;;;;;;;;;5065833;28;20396;-72
2022/04/02 07:25:54;;;;;;;8.80;3.40;;;2.80;99.90;;;;;;5071362;28;20068;-71
2022/04/02 07:28:27;;;;;;;9.90;3.50;;;2.80;99.90;;;;;;5066408;28;20064;-71
2022/04/02 07:30:53;;;;;;;7.15;3.50;;;;;;;;;;5068161;28;20435;-71
2022/04/02 07:33:21;;;;;;;8.00;3.15;;;;;;;;;;5060552;28;20075;-71
2022/04/02 07:35:57;;;;;;;7.55;3.33;;;2.90;99.20;;;;;;5055592;28;20041;-71
2022/04/02 07:38:37;;;;;;;8.80;2.80;;;;;;;;;;5043596;28;20040;-70
2022/04/02 07:41:16;;;;;;;8.50;3.45;;;;;;;;;;5061863;28;20040;-70
2022/04/02 07:44:11;;;;;;;6.30;2.80;;;3.20;99.80;;;;;;5054405;28;20053;-66
2022/04/02 07:46:41;;;;;;;6.95;3.13;;;;;;;;;;5018653;28;20186;-71
2022/04/02 07:49:12;;;;;;;6.93;3.22;;;;;;;;;;5066052;28;20075;-66
2022/04/02 07:51:39;;;;;;;10.75;3.88;;;;;;;;;;5071514;28;20048;-67
2022/04/02 07:54:07;;;;;;;10.18;3.58;;;3.90;99.00;;;;;;5059220;28;20072;-67
2022/04/02 07:56:37;;;;;;;8.52;3.40;;;3.80;98.90;;;;;;5055196;28;20045;-67
2022/04/02 07:59:15;;;;;;;7.18;3.25;;;;;;;;;;5065386;28;20475;-68
2022/04/02 08:01:42;;;;;;;5.43;2.65;;;;;;;;;;5039353;28;20043;-72
2022/04/02 08:04:10;;;;;;;11.70;2.88;;;;;;;;;;5059206;28;20082;-71
2022/04/02 08:06:37;;;;;;;7.47;3.47;;;;;;;;;;5054933;28;20105;-70
2022/04/02 08:09:03;;;;;;;8.15;2.72;;;4.10;97.70;;;;;;5057733;28;20115;-70
2022/04/02 08:11:29;;;;;;;14.95;2.60;;;;;;;;;;5056306;28;20485;-70
2022/04/02 08:13:57;;;;;;;5.25;2.40;;;;;;;;;;5068925;28;20170;-70
2022/04/02 08:16:23;;;;;;;3.38;1.83;;;;;;;;;;5064711;28;20037;-70
2022/04/02 08:18:51;;;;;;;3.95;2.00;;;4.40;97.50;;;;;;5065212;28;20048;-71
2022/04/02 08:21:17;;;;;;;7.32;2.70;;;;;;;;;;5070083;28;20040;-70
2022/04/02 08:23:43;;;;;;;6.07;2.20;;;;;;;;;;5055992;28;20044;-71
2022/04/02 08:26:28;;;;;;;7.30;2.35;;;4.60;97.10;;;;;;5062427;28;20118;-70
2022/04/02 08:28:54;;;;;;;5.72;2.05;;;;;;;;;;5054566;28;20442;-70
2022/04/02 08:31:29;;;;;;;12.88;3.35;;;;;;;;;;5073030;28;20102;-70
2022/04/02 08:34:29;;;;;;;3.55;2.00;;;4.80;96.30;;;;;;5072534;28;20044;-70
2022/04/02 08:37:02;;;;;;;5.32;2.13;;;;;;;;;;5073309;28;20388;-70
2022/04/02 08:39:46;;;;;;;5.65;2.40;;;5.00;96.20;;;;;;5070560;28;20393;-70
2022/04/02 08:42:23;;;;;;;9.50;2.28;;;;;;;;;;5073937;28;20040;-70
2022/04/02 08:45:04;;;;;;;4.50;2.05;;;5.40;94.70;;;;;;5066393;28;20037;-70
2022/04/02 08:47:55;;;;;;;3.20;2.08;;;;;;;;;;5086999;28;20049;-70
2022/04/02 08:50:29;;;;;;;4.75;1.95;;;;;;;;;;5064181;28;20401;-67
2022/04/02 08:52:57;;;;;;;9.10;1.90;;;5.50;95.30;;;;;;5070014;28;20469;-67
2022/04/02 08:55:35;;;;;;;4.20;1.90;;;;;;;;;;5055924;28;20362;-67
2022/04/02 08:58:19;;;;;;;7.65;2.10;;;5.20;94.40;;;;;;5053979;28;20108;-69
2022/04/02 09:01:11;;;;;;;6.72;2.50;;;5.40;95.90;;;;;;5065218;28;20083;-69
2022/04/02 09:03:55;;;;;;;6.30;2.00;;;;;;;;;;5061277;28;20056;-70
2022/04/02 09:06:42;;;;;;;3.10;1.80;;;5.20;94.40;;;;;;5066028;28;20048;-70
2022/04/02 09:09:36;;;;;;;8.07;2.20;;;5.10;95.30;;;;;;5070578;28;20386;-70
2022/04/02 09:12:08;;;;;;;3.80;1.77;;;5.10;94.20;;;;;;5068290;28;20044;-70
2022/04/02 09:15:07;;;;;;;10.15;2.53;;;5.10;96.10;;;;;;5057453;28;20037;-70
2022/04/02 09:17:49;;;;;;;6.72;2.85;;;;;;;;;;5062211;28;20090;-70
2022/04/02 09:20:35;;;;;;;10.63;2.63;;;;;;;;;;5057540;28;20060;-70
2022/04/02 09:23:17;;;;;;;5.85;2.40;;;;;;;;;;5066460;28;20052;-70
2022/04/02 09:26:10;;;;;;;6.25;2.15;;;4.80;95.10;;;;;;5072502;28;20037;-70
2022/04/02 09:28:42;;;;;;;11.48;2.05;;;;;;;;;;5071453;28;20051;-70
2022/04/02 09:31:50;;;;;;;5.55;1.70;;;4.80;95.60;;;;;;5073229;28;20091;-70
2022/04/02 09:34:16;;;;;;;8.23;1.60;;;;;;;;;;5072359;28;20048;-70
2022/04/02 09:37:08;;;;;;;3.30;1.67;;;4.90;94.90;;;;;;5072335;28;20473;-70
2022/04/02 09:39:52;;;;;;;10.63;1.77;;;;;;;;;;5072393;28;20047;-66
2022/04/02 09:42:30;;;;;;;4.45;1.80;;;4.70;95.00;;;;;;5072084;28;20049;-69
2022/04/02 09:45:12;;;;;;;13.15;2.10;;;4.80;93.90;;;;;;5072138;28;20412;-66
2022/04/02 09:47:47;;;;;;;7.63;1.83;;;4.70;94.40;;;;;;5073305;28;20042;-67
2022/04/02 09:50:16;;;;;;;4.10;2.47;;;;;;;;;;5055235;28;20044;-67
2022/04/02 09:52:44;;;;;;;6.95;1.63;;;5.30;94.50;;;;;;5073270;28;20389;-67
2022/04/02 09:55:15;;;;;;;4.85;1.67;;;5.70;94.60;;;;;;5072976;28;20435;-67
2022/04/02 09:57:44;;;;;;;6.38;1.98;;;;;;;;;;5072347;28;20028;-77
2022/04/02 10:00:11;;;;;;;5.18;1.77;;;;;;;;;;5047652;28;20032;-68
2022/04/02 10:02:37;;;;;;;12.85;2.00;;;;;;;;;;5069625;28;20506;-72
2022/04/02 10:05:15;;;;;;;8.15;2.50;;;;;;;;;;5064826;28;20037;-71
2022/04/02 10:07:50;;;;;;;12.45;3.40;;;;;;;;;;5059451;28;20079;-70
2022/04/02 10:10:19;;;;;;;3.63;1.90;;;5.60;94.30;;;;;;5059251;28;20075;-70
2022/04/02 10:12:48;;;;;;;5.97;1.77;;;;;;;;;;5081651;28;20044;-71
2022/04/02 10:15:15;;;;;;;5.38;1.80;;;;;;;;;;5061618;28;20041;-71
2022/04/02 10:17:46;;;;;;;6.45;1.73;;;;;;;;;;5069196;28;20509;-70
2022/04/02 10:20:13;;;;;;;13.82;2.20;;;5.80;92.50;;;;;;5064317;28;20453;-70
2022/04/02 10:22:43;;;;;;;7.35;2.10;;;5.90;93.10;;;;;;5067729;28;20060;-70
2022/04/02 10:25:11;;;;;;;5.10;1.60;;;5.50;96.80;;;;;;5066926;28;20045;-70
2022/04/02 10:27:46;;;;;;;10.35;2.83;;;5.50;93.50;;;;;;5057066;28;20052;-70
2022/04/02 10:30:13;;;;;;;8.23;2.20;;;;;;;;;;5052644;28;20056;-71
2022/04/02 10:32:57;;;;;;;7.38;2.33;;;6.00;94.10;;;;;;5047865;28;20077;-71
2022/04/02 10:35:27;;;;;;;5.70;2.00;;;;;;;;;;5062819;28;20045;-71
2022/04/02 10:38:04;;;;;;;5.40;2.10;;;;;;;;;;5041817;28;20482;-70
2022/04/02 10:40:31;;;;;;;6.10;2.13;;;;;;;;;;5055021;28;20045;-71
2022/04/02 10:43:04;;;;;;;8.73;2.00;;;5.70;93.30;;;;;;5059620;28;20074;-71
2022/04/02 10:45:33;;;;;;;5.95;1.83;;;;;;;;;;5071175;28;20044;-71
2022/04/02 10:48:13;;;;;;;4.82;1.85;;;;;;;;;;5072751;28;20036;-71
2022/04/02 10:50:40;;;;;;;9.23;2.17;;;;;;;;;;5071194;28;20155;-70
2022/04/02 10:53:10;;;;;;;7.45;2.58;;;5.70;92.20;;;;;;5071383;28;20511;-71
2022/04/02 10:55:43;;;;;;;12.35;2.35;;;5.90;92.60;;;;;;5072685;28;20028;-71
2022/04/02 10:58:11;;;;;;;4.70;1.67;;;6.00;92.30;;;;;;5071265;28;20044;-71
2022/04/02 11:00:39;;;;;;;4.57;1.88;;;5.80;92.50;;;;;;5067114;28;20045;-70
2022/04/02 11:03:06;;;;;;;9.40;3.05;;;;;;;;;;5055056;28;20120;-71
2022/04/02 11:05:37;;;;;;;4.22;2.38;;;5.80;92.80;;;;;;5051384;28;20036;-70
2022/04/02 11:08:05;;;;;;;8.30;1.90;;;;;;;;;;5052477;28;20044;-70
2022/04/02 11:10:31;;;;;;;14.82;2.33;;;;;;;;;;5057658;28;20075;-70
2022/04/02 11:13:01;;;;;;;7.18;2.33;;;6.30;91.70;;;;;;5059688;28;20114;-70
2022/04/02 11:15:27;;;;;;;7.78;2.33;;;;;;;;;;5054832;28;20045;-70
2022/04/02 11:17:59;;;;;;;5.93;1.92;;;6.00;92.00;;;;;;5061590;28;20045;-71
2022/04/02 11:20:30;;;;;;;6.93;2.22;;;6.00;92.50;;;;;;5058055;28;20041;-70
2022/04/02 11:22:59;;;;;;;4.53;1.52;;;;;;;;;;5063428;28;20068;-71
2022/04/02 11:25:31;;;;;;;5.47;1.77;;;;;;;;;;5073863;28;20024;-71
2022/04/02 11:28:11;;;;;;;4.68;2.10;;;6.00;91.80;;;;;;5063755;28;20037;-71
2022/04/02 11:30:42;;;;;;;10.15;1.92;;;;;;;;;;5067087;28;20400;-71
2022/04/02 11:33:28;;;;;;;7.18;2.00;;;;;;;;;;5062990;28;20112;-70
2022/04/02 11:35:56;;;;;;;6.97;2.67;;;;;;;;;;5072369;28;20391;-71
2022/04/02 11:38:23;;;;;;;10.90;2.15;;;;;;;;;;5060905;28;20045;-67
2022/04/02 11:41:11;;;;;;;8.23;2.22;;;6.40;92.40;;;;;;5053903;28;20045;-67
2022/04/02 11:43:42;;;;;;;13.20;2.60;;;6.50;92.00;;;;;;5064452;28;20066;-68
2022/04/02 11:46:13;;;;;;;5.40;2.50;;;6.30;90.60;;;;;;5061340;28;20051;-66
2022/04/02 11:48:54;;;;;;;4.90;1.90;;;;;;;;;;5078099;28;20516;-66
2022/04/02 11:51:33;;;;;;;7.60;2.15;;;6.30;91.90;;;;;;5053599;28;20095;-67
2022/04/02 11:54:10;;;;;;;6.28;2.05;;;6.70;92.00;;;;;;5057498;28;20047;-67
2022/04/02 11:56:39;;;;;;;7.00;1.80;;;;;;;;;;5063227;28;20484;-67
2022/04/02 11:59:13;;;;;;;5.00;1.83;;;6.30;90.40;;;;;;5058845;28;20045;-67
2022/04/02 12:01:41;;;;;;;3.83;1.73;;;6.00;91.40;;;;;;5055221;28;20040;-67
2022/04/02 12:04:08;;;;;;;7.88;2.10;;;;;;;;;;5071241;28;20040;-68
2022/04/02 12:06:36;;;;;;;4.82;1.70;;;6.00;91.30;;;;;;5070974;28;20427;-67
2022/04/02 12:09:10;;;;;;;12.32;2.55;;;;;;;;;;5060043;28;20477;-66
2022/04/02 12:11:36;;;;;;;4.88;2.17;;;;;;;;;;5058582;28;20082;-67
2022/04/02 12:14:05;;;;;;;10.82;2.10;;;;;;;;;;5058020;28;20043;-67
2022/04/02 12:16:32;;;;;;;4.53;1.88;;;;;;;;;;5053593;28;20072;-67
2022/04/02 12:18:58;;;;;;;8.00;1.70;;;;;;;;;;5063528;28;20048;-67
2022/04/02 12:21:37;;;;;;;6.82;2.10;;;;;;;;;;5070970;28;20076;-67
2022/04/02 12:24:05;;;;;;;23.42;2.58;;;6.50;90.70;;;;;;5058868;28;20132;-66
2022/04/02 12:26:31;;;;;;;5.63;2.17;;;;;;;;;;5072372;28;20064;-67
2022/04/02 12:29:00;;;;;;;7.32;1.83;;;7.00;89.70;;;;;;5069214;28;20488;-66
2022/04/02 12:31:28;;;;;;;9.05;1.98;;;7.10;89.40;;;;;;5060597;28;20119;-68
2022/04/02 12:33:54;;;;;;;4.07;1.70;;;;;;;;;;5057977;28;20044;-67
2022/04/02 12:36:38;;;;;;;164.68;12.45;;;;;;;;;;5062309;28;20028;-67
2022/04/02 12:39:10;;;;;;;53.22;5.95;;;7.00;90.40;;;;;;5061358;28;20045;-67
2022/04/02 12:41:49;;;;;;;11.10;2.10;;;7.20;90.10;;;;;;5061169;28;20044;-67
2022/04/02 12:44:19;;;;;;;3.95;1.77;;;;;;;;;;5069376;28;20374;-67
2022/04/02 12:46:45;;;;;;;10.98;2.15;;;;;;;;;;5072047;28;20082;-67
2022/04/02 12:49:27;;;;;;;6.82;2.28;;;;;;;;;;5065692;28;20068;-67
2022/04/02 12:52:13;;;;;;;11.83;2.00;;;;;;;;;;5057740;28;20049;-67
2022/04/02 12:54:43;;;;;;;8.23;2.10;;;;;;;;;;5064418;28;20083;-67
2022/04/02 12:57:12;;;;;;;7.85;1.80;;;7.20;90.10;;;;;;5065835;28;20040;-68
2022/04/02 12:59:50;;;;;;;7.88;1.80;;;7.10;90.10;;;;;;5070109;28;20534;-67
2022/04/02 13:02:20;;;;;;;14.18;2.10;;;;;;;;;;5054996;28;20440;-67
2022/04/02 13:04:54;;;;;;;11.60;3.13;;;7.10;90.50;;;;;;5063423;28;20044;-67
2022/04/02 13:07:21;;;;;;;9.00;2.00;;;7.10;88.70;;;;;;5053812;28;20041;-68
2022/04/02 13:09:48;;;;;;;116.40;9.45;;;;;;;;;;5062161;28;20119;-67
2022/04/02 13:12:20;;;;;;;8.63;2.15;;;;;;;;;;5072681;28;20040;-67
2022/04/02 13:14:49;;;;;;;7.18;2.08;;;;;;;;;;5073371;28;20040;-67
2022/04/02 13:17:17;;;;;;;7.20;2.00;;;;;;;;;;5072247;28;20045;-67
2022/04/02 13:22:53;;;;;;;6.30;2.10;;;7.70;89.40;;;;;;5070318;28;20044;-68
2022/04/02 13:25:24;;;;;;;9.15;1.88;;;;;;;;;;5059776;28;20040;-72
2022/04/02 13:28:02;;;;;;;4.43;1.77;;;7.40;86.70;;;;;;5072159;28;20119;-67
2022/04/02 13:30:35;;;;;;;9.98;2.03;;;;;;;;;;5071885;28;20045;-71
2022/04/02 13:33:01;;;;;;;6.30;2.17;;;;;;;;;;5072830;28;20032;-72
2022/04/02 13:35:43;;;;;;;8.07;1.80;;;;;;;;;;5070979;28;20481;-71
2022/04/02 13:38:30;;;;;;;7.35;1.77;;;7.30;89.00;;;;;;5067038;28;20548;-72
2022/04/02 13:41:04;;;;;;;8.82;2.00;;;7.00;90.20;;;;;;5065094;28;20496;-70
2022/04/02 13:43:34;;;;;;;7.40;2.22;;;;;;;;;;5069265;28;20044;-71
2022/04/02 13:46:09;;;;;;;503.45;36.47;;;7.60;90.10;;;;;;5067108;28;20033;-71
2022/04/02 13:48:36;;;;;;;12.30;2.72;;;;;;;;;;5053183;28;20139;-70
2022/04/02 13:51:11;;;;;;;18.73;2.30;;;7.30;89.70;;;;;;5052251;28;20071;-72
2022/04/02 13:53:40;;;;;;;5.10;1.95;;;7.30;89.90;;;;;;5052836;28;20045;-71
2022/04/02 13:56:20;;;;;;;4.28;1.83;;;7.50;88.50;;;;;;5056616;28;20503;-72
2022/04/02 13:58:48;;;;;;;8.02;2.00;;;7.50;86.80;;;;;;5059029;28;20029;-71
2022/04/02 14:01:18;;;;;;;5.90;2.20;;;;;;;;;;5053028;28;20485;-72
2022/04/02 14:03:46;;;;;;;6.60;1.73;;;;;;;;;;5068434;28;20510;-72
2022/04/02 14:06:14;;;;;;;5.97;1.90;;;7.60;87.90;;;;;;5069924;28;20431;-71
2022/04/02 14:08:51;;;;;;;10.85;3.83;;;7.40;88.70;;;;;;5063004;28;20040;-72
2022/04/02 14:11:20;;;;;;;5.75;1.75;;;7.50;87.60;;;;;;5064823;28;20059;-72
2022/04/02 14:14:12;;;;;;;7.07;1.75;;;7.50;84.80;;;;;;5055645;28;20033;-72
2022/04/02 14:16:39;;;;;;;4.35;1.95;;;7.50;86.00;;;;;;5052507;28;20036;-72
2022/04/02 14:19:10;;;;;;;31.55;3.60;;;7.50;85.90;;;;;;5062627;28;20076;-72
2022/04/02 14:21:40;;;;;;;8.38;2.40;;;7.30;86.90;;;;;;5071790;28;20493;-72
2022/04/02 14:24:07;;;;;;;7.13;2.10;;;;;;;;;;5072765;28;20036;-72
2022/04/02 14:26:56;;;;;;;6.20;2.25;;;7.20;87.00;;;;;;5072949;28;20044;-72
2022/04/02 14:30:00;;;;;;;7.82;2.03;;;7.10;87.50;;;;;;5071567;28;20052;-72